Time;durP1;ratioP1;P1;durP2;ratioP2;P2;SDS_P1;SDS_P2;PMS_P1;PMS_P2;Temp;Humidity;BMP_temperature;BMP_pressure;BME280_temperature;BME280_humidity;BME280_pressure;Samples;Min_cycle;Max_cycle;Signal;HPM_P1;HPM_P2
2021/10/31 00:00:14;;;;;;;10.60;6.63;;;;;;;21.84;58.97;97094.69;4988262;28;20231;-63
2021/10/31 00:02:40;;;;;;;16.07;7.23;;;;;;;21.85;59.02;97083.63;4988964;28;20245;-62
2021/10/31 00:07:35;;;;;;;15.37;7.13;;;;;;;21.69;58.91;97065.38;5004705;28;20292;-61
2021/10/31 00:10:03;;;;;;;13.17;6.63;;;;;;;21.87;58.80;97095.59;5002592;28;20313;-63
2021/10/31 00:12:30;;;;;;;13.97;7.53;;;;;;;21.67;58.88;97071.25;5008539;28;20731;-61
2021/10/31 00:14:57;;;;;;;9.83;7.00;;;;;;;21.87;58.41;97094.78;5006085;28;20242;-63
2021/10/31 00:17:23;;;;;;;12.83;7.03;;;;;;;21.88;59.00;97115.25;4992252;28;20514;-61
2021/10/31 00:19:50;;;;;;;12.40;7.20;;;;;;;21.89;58.83;97113.53;4990448;28;20267;-61
2021/10/31 00:22:17;;;;;;;13.50;7.17;;;;;;;21.90;58.86;97116.13;4987512;28;20206;-61
2021/10/31 00:24:43;;;;;;;12.40;6.90;;;;;;;21.85;59.22;97104.97;4990297;28;20330;-60
2021/10/31 00:27:10;;;;;;;13.80;7.20;;;;;;;21.77;58.68;97077.47;4995586;28;20264;-61
2021/10/31 00:29:36;;;;;;;12.00;6.80;;;;;;;21.91;58.58;97110.22;4990998;28;20203;-62
2021/10/31 00:32:03;;;;;;;11.43;7.33;;;;;;;21.92;58.76;97095.69;4992511;28;20650;-61
2021/10/31 00:34:30;;;;;;;10.27;6.47;;;;;;;21.91;58.54;97099.97;4984401;28;20242;-60
2021/10/31 00:36:57;;;;;;;9.20;6.20;;;;;;;21.91;58.33;97099.97;4990021;28;20231;-61
2021/10/31 00:39:24;;;;;;;9.43;6.47;;;;;;;21.83;58.55;97083.59;4992856;28;20334;-61
2021/10/31 00:41:50;;;;;;;15.10;7.10;;;;;;;21.86;58.73;97088.78;4987986;28;20203;-61
2021/10/31 00:44:17;;;;;;;9.53;6.60;;;;;;;21.83;58.82;97080.16;4992332;28;20210;-61
2021/10/31 00:46:44;;;;;;;9.73;7.20;;;;;;;21.34;58.93;97012.59;4989732;28;20261;-63
2021/10/31 00:49:10;;;;;;;11.57;7.23;;;;;;;21.81;58.88;97092.03;4992682;28;20601;-61
2021/10/31 00:51:37;;;;;;;10.03;6.90;;;;;;;21.76;58.96;97094.50;4988921;28;20309;-61
2021/10/31 00:54:03;;;;;;;13.20;7.13;;;;;;;21.74;58.83;97085.97;4990792;28;20238;-60
2021/10/31 00:56:31;;;;;;;12.97;7.50;;;;;;;21.77;58.98;97101.38;4989819;28;20258;-62
2021/10/31 00:58:57;;;;;;;11.00;6.93;;;;;;;21.75;59.11;97105.56;4987668;28;20203;-59
2021/10/31 01:01:26;;;;;;;10.50;7.57;;;;;;;21.77;59.05;97110.72;4983892;28;20623;-61
2021/10/31 01:03:56;;;;;;;11.13;6.87;;;;;;;21.59;59.15;97081.31;4986367;28;20257;-62
2021/10/31 01:06:34;;;;;;;11.77;6.77;;;;;;;21.78;59.20;97112.44;4945461;28;1144616;-62
2021/10/31 01:09:20;;;;;;;10.73;7.00;;;;;;;21.80;58.76;97100.56;4986849;28;20309;-62
2021/10/31 01:11:55;;;;;;;9.13;6.97;;;;;;;21.63;59.10;97060.13;4971538;28;20226;-61
2021/10/31 01:14:52;;;;;;;10.17;6.70;;;;;;;21.81;58.89;97081.81;4986971;28;20233;-62
2021/10/31 01:18:02;;;;;;;8.27;6.40;;;;;;;21.83;59.03;97072.50;4984050;28;20325;-64
2021/10/31 01:20:53;;;;;;;8.40;6.47;;;;;;;21.83;58.85;97082.72;4952039;28;20280;-60
2021/10/31 01:23:49;;;;;;;8.90;6.43;;;;;;;21.83;58.69;97129.63;4983620;28;20234;-60
2021/10/31 01:26:36;;;;;;;10.27;6.77;;;;;;;21.84;58.88;97122.84;4974916;28;20253;-60
2021/10/31 01:29:22;;;;;;;8.70;6.40;;;;;;;21.85;58.78;97117.75;4981248;28;20383;-61
2021/10/31 01:32:00;;;;;;;7.37;6.27;;;;;;;21.86;59.04;97116.03;4987022;28;20230;-61
2021/10/31 01:34:42;;;;;;;8.93;6.47;;;;;;;21.86;58.98;97121.16;4987869;28;20779;-62
2021/10/31 01:37:16;;;;;;;14.27;6.50;;;;;;;21.78;59.05;97117.56;4981144;28;20257;-62
2021/10/31 01:39:52;;;;;;;9.33;6.50;;;;;;;21.88;58.87;97128.06;4987106;28;20646;-61
2021/10/31 01:42:37;;;;;;;7.27;6.10;;;;;;;21.87;58.95;97133.97;4970657;28;20297;-62
2021/10/31 01:45:09;;;;;;;8.63;6.20;;;;;;;21.89;58.96;97134.00;4986959;28;20241;-62
2021/10/31 01:48:00;;;;;;;9.50;6.73;;;;;;;21.89;58.75;97132.34;4987368;28;20203;-61
2021/10/31 01:50:39;;;;;;;7.10;6.37;;;;;;;21.88;58.48;97147.66;4982867;28;20231;-61
2021/10/31 01:53:21;;;;;;;7.40;5.80;;;;;;;21.86;58.89;97160.41;4986183;28;20450;-61
2021/10/31 01:56:06;;;;;;;10.47;6.47;;;;;;;21.84;58.94;97169.72;4987379;28;20308;-63
2021/10/31 01:58:35;;;;;;;7.27;6.27;;;;;;;21.79;59.22;97162.78;4983896;28;20293;-61
2021/10/31 02:01:02;;;;;;;6.73;6.03;;;;;;;21.81;58.72;97164.53;4983717;28;20223;-61
2021/10/31 02:03:31;;;;;;;8.50;6.57;;;;;;;21.79;59.00;97155.13;4988273;28;20580;-61
2021/10/31 02:05:58;;;;;;;7.50;6.33;;;;;;;21.78;58.73;97148.25;4988073;28;20273;-61
2021/10/31 02:08:25;;;;;;;7.67;6.43;;;;;;;21.76;58.86;97142.25;4973412;28;20230;-60
2021/10/31 02:10:53;;;;;;;9.50;7.00;;;;;;;21.76;58.94;97142.25;4970764;28;20655;-61
2021/10/31 02:13:23;;;;;;;8.50;6.50;;;;;;;21.74;59.11;97142.22;4990426;28;20230;-61
2021/10/31 02:15:49;;;;;;;8.73;7.20;;;;;;;21.46;58.91;97087.00;4989315;28;20280;-61
2021/10/31 02:18:16;;;;;;;8.93;6.73;;;;;;;21.74;59.15;97124.31;4990149;28;20234;-61
2021/10/31 02:20:55;;;;;;;6.83;5.93;;;;;;;21.64;59.17;97105.31;4977961;28;20227;-61
2021/10/31 02:23:22;;;;;;;7.73;6.67;;;;;;;21.69;59.25;97111.41;4977588;28;20198;-62
2021/10/31 02:25:49;;;;;;;7.77;6.40;;;;;;;21.78;59.23;97125.22;4989865;28;20265;-62
2021/10/31 02:28:15;;;;;;;7.20;5.93;;;;;;;21.76;59.20;97117.53;4978057;28;20303;-61
2021/10/31 02:30:42;;;;;;;7.40;6.17;;;;;;;21.76;59.02;97114.13;4990977;28;20302;-60
2021/10/31 02:33:09;;;;;;;6.63;5.90;;;;;;;21.80;58.97;97109.09;4991137;28;20234;-61
2021/10/31 02:35:35;;;;;;;8.37;6.30;;;;;;;21.81;59.21;97109.94;4990928;28;20223;-63
2021/10/31 02:38:02;;;;;;;7.47;6.73;;;;;;;21.82;59.46;97104.91;4991176;28;20290;-61
2021/10/31 02:40:31;;;;;;;8.47;6.43;;;;;;;21.82;58.84;97098.91;4991006;28;20234;-61
2021/10/31 02:42:58;;;;;;;6.57;5.87;;;;;;;21.83;59.02;97111.72;4989419;28;20754;-60
2021/10/31 02:45:24;;;;;;;7.93;6.30;;;;;;;21.84;58.91;97108.34;4990825;28;20620;-61
2021/10/31 02:47:56;;;;;;;7.33;6.20;;;;;;;21.86;58.94;97110.91;4989492;28;20233;-60
2021/10/31 02:50:33;;;;;;;6.30;5.70;;;;;;;21.85;58.87;97110.09;4989389;28;20326;-61
2021/10/31 02:53:08;;;;;;;6.73;5.90;;;;;;;21.87;58.98;97125.47;4988738;28;20687;-61
2021/10/31 02:56:14;;;;;;;8.70;6.33;;;;;;;21.87;58.74;97117.78;4989124;28;20258;-60
2021/10/31 02:59:05;;;;;;;6.70;5.97;;;;;;;21.88;58.63;97125.50;4988064;28;20199;-61
2021/10/31 03:01:32;;;;;;;7.07;5.73;;;;;;;21.88;58.90;97133.19;4986685;28;20292;-61
2021/10/31 03:03:58;;;;;;;7.33;6.03;;;;;;;21.87;58.52;97131.44;4990184;28;20211;-61
2021/10/31 03:06:25;;;;;;;6.53;5.80;;;;;;;21.69;58.70;97092.63;4988179;28;20269;-61
2021/10/31 03:08:51;;;;;;;6.27;5.67;;;;;;;21.84;58.89;97116.00;4966918;28;20745;-60
2021/10/31 03:11:18;;;;;;;7.43;5.77;;;;;;;21.82;58.57;97112.56;4990309;28;20269;-61
2021/10/31 03:13:45;;;;;;;6.13;5.57;;;;;;;21.76;59.02;97094.50;4989433;28;20235;-62
2021/10/31 03:16:12;;;;;;;7.73;6.53;;;;;;;21.78;58.65;97097.09;4988908;28;20309;-60
2021/10/31 03:18:38;;;;;;;7.03;5.83;;;;;;;21.77;59.20;97100.50;4988959;28;20787;-60
2021/10/31 03:21:05;;;;;;;8.07;6.20;;;;;;;21.77;58.93;97118.41;4989006;28;20234;-61
2021/10/31 03:23:32;;;;;;;6.60;6.00;;;;;;;21.76;58.98;97109.00;4987367;28;20234;-63
2021/10/31 03:25:58;;;;;;;7.40;6.70;;;;;;;21.65;59.04;97095.94;4989947;28;20735;-60
2021/10/31 03:28:25;;;;;;;8.30;6.40;;;;;;;21.73;58.94;97114.03;4988876;28;20318;-61
2021/10/31 03:30:51;;;;;;;6.60;5.87;;;;;;;21.28;59.11;97032.91;4990636;28;20313;-59
2021/10/31 03:33:18;;;;;;;7.73;6.70;;;;;;;21.71;59.22;97094.38;4989762;28;20231;-63
2021/10/31 03:35:45;;;;;;;6.53;5.93;;;;;;;21.74;59.26;97106.41;4990448;28;20261;-61
2021/10/31 03:38:11;;;;;;;6.60;6.00;;;;;;;21.76;59.18;97109.00;4990257;28;20227;-61
2021/10/31 03:40:38;;;;;;;6.30;5.70;;;;;;;21.77;58.92;97120.97;4990156;28;20214;-61
2021/10/31 03:43:04;;;;;;;5.90;5.30;;;;;;;21.76;59.01;97116.69;4988271;28;20289;-62
2021/10/31 03:45:31;;;;;;;6.37;5.77;;;;;;;21.77;59.08;97124.41;4989432;28;20719;-60
2021/10/31 03:47:58;;;;;;;6.97;6.27;;;;;;;21.79;58.64;97125.28;4989928;28;20210;-61
2021/10/31 03:50:25;;;;;;;7.27;5.60;;;;;;;21.81;59.04;97127.84;4990208;28;20664;-60
2021/10/31 03:52:52;;;;;;;6.40;5.77;;;;;;;21.82;59.09;97139.84;4990254;28;20245;-61
2021/10/31 03:55:18;;;;;;;6.27;5.67;;;;;;;21.83;59.31;97137.31;4989478;28;20752;-61
2021/10/31 03:57:45;;;;;;;7.20;6.50;;;;;;;21.83;58.94;97128.75;4989635;28;20207;-62
2021/10/31 04:00:13;;;;;;;6.30;5.70;;;;;;;21.83;58.77;97121.97;4989487;28;20609;-61
2021/10/31 04:02:40;;;;;;;6.20;5.50;;;;;;;21.84;59.14;97115.16;4988940;28;20688;-61
2021/10/31 04:05:07;;;;;;;6.40;5.77;;;;;;;21.85;58.92;97115.19;4983081;28;20210;-62
2021/10/31 04:07:34;;;;;;;7.27;6.30;;;;;;;21.87;58.95;97122.91;4988964;28;20262;-61
2021/10/31 04:10:01;;;;;;;6.97;6.13;;;;;;;21.86;58.74;97122.03;4989659;28;20242;-61
2021/10/31 04:12:28;;;;;;;6.80;6.10;;;;;;;21.87;58.98;97115.22;4988612;28;20227;-61
2021/10/31 04:14:54;;;;;;;6.70;6.00;;;;;;;21.88;58.85;97106.72;4988415;28;20239;-62
2021/10/31 04:17:21;;;;;;;6.93;5.67;;;;;;;21.68;58.68;97060.22;4988933;28;20231;-61
2021/10/31 04:19:48;;;;;;;6.73;6.03;;;;;;;21.86;58.87;97078.53;4989236;28;20693;-61
2021/10/31 04:22:14;;;;;;;7.73;6.27;;;;;;;21.72;58.58;97054.31;4989420;28;20238;-61
2021/10/31 04:24:41;;;;;;;5.90;5.40;;;;;;;21.34;58.69;97022.81;4987542;28;20211;-62
2021/10/31 04:27:08;;;;;;;6.80;6.20;;;;;;;21.76;58.79;97086.00;4982817;28;20317;-61
2021/10/31 04:29:34;;;;;;;6.87;6.17;;;;;;;21.77;58.82;97086.03;4985825;28;20384;-60
2021/10/31 04:32:01;;;;;;;6.77;5.97;;;;;;;21.58;58.94;97045.50;4977937;28;20333;-61
2021/10/31 04:34:28;;;;;;;6.40;5.80;;;;;;;21.69;58.79;97064.50;4983013;28;20234;-60
2021/10/31 04:36:55;;;;;;;7.07;6.37;;;;;;;21.74;58.86;97073.16;4985725;28;20314;-61
2021/10/31 04:39:21;;;;;;;7.43;6.73;;;;;;;21.68;58.75;97068.72;4987582;28;20757;-61
2021/10/31 04:41:48;;;;;;;7.13;6.43;;;;;;;21.71;58.93;97079.03;4990058;28;20202;-61
2021/10/31 04:44:15;;;;;;;6.43;5.80;;;;;;;21.71;59.08;97094.38;4989755;28;21009;-61
2021/10/31 04:46:42;;;;;;;6.73;6.03;;;;;;;21.73;59.20;97106.34;4989072;28;20246;-61
2021/10/31 04:49:09;;;;;;;6.50;5.90;;;;;;;21.73;59.14;97108.91;4968696;28;20253;-61
2021/10/31 04:51:35;;;;;;;6.37;5.77;;;;;;;21.74;59.04;97121.75;4987612;28;20223;-61
2021/10/31 04:54:02;;;;;;;7.20;6.50;;;;;;;21.75;59.21;97120.94;4988608;28;20285;-61
2021/10/31 04:56:29;;;;;;;6.40;5.80;;;;;;;21.77;59.02;97115.84;4987133;28;20251;-60
2021/10/31 04:58:56;;;;;;;6.80;6.10;;;;;;;21.78;59.67;97107.31;4988939;28;20237;-61
2021/10/31 05:01:25;;;;;;;6.13;5.53;;;;;;;21.78;59.42;97100.53;4983962;28;20567;-60
2021/10/31 05:03:52;;;;;;;6.57;6.00;;;;;;;21.80;58.97;97090.34;4988334;28;20281;-61
2021/10/31 05:06:19;;;;;;;7.47;5.77;;;;;;;21.80;59.10;97088.66;4982377;28;20262;-60
2021/10/31 05:08:45;;;;;;;6.63;6.03;;;;;;;21.81;59.37;97080.13;4987354;28;20207;-59
2021/10/31 05:11:12;;;;;;;6.53;5.93;;;;;;;21.82;58.93;97074.19;4987750;28;20269;-61
2021/10/31 05:13:39;;;;;;;6.73;6.00;;;;;;;21.81;58.87;97081.81;4987745;28;20305;-61
2021/10/31 05:16:07;;;;;;;6.77;6.17;;;;;;;21.84;58.90;97076.78;4988041;28;20254;-60
2021/10/31 05:18:34;;;;;;;6.17;5.57;;;;;;;21.85;59.08;97081.06;4988959;28;20203;-61
2021/10/31 05:21:01;;;;;;;6.50;5.90;;;;;;;21.86;59.11;97077.66;4988232;28;20213;-61
2021/10/31 05:23:28;;;;;;;6.30;5.70;;;;;;;21.67;58.98;97051.66;4986631;28;20295;-60
2021/10/31 05:25:55;;;;;;;6.67;5.90;;;;;;;21.87;59.02;97081.97;4985158;28;20310;-61
2021/10/31 05:28:21;;;;;;;6.53;5.93;;;;;;;21.85;58.72;97068.28;4987938;28;20230;-60
2021/10/31 05:30:48;;;;;;;7.60;6.90;;;;;;;21.84;59.04;97069.97;4988432;28;20230;-61
2021/10/31 05:33:15;;;;;;;10.70;9.63;;;;;;;21.82;56.66;97066.53;4987934;28;20265;-61
2021/10/31 05:35:41;;;;;;;13.83;12.43;;;;;;;21.83;54.11;97064.81;4988699;28;20666;-61
2021/10/31 05:38:10;;;;;;;14.93;13.43;;;;;;;21.80;53.28;97067.31;4987368;28;20632;-61
2021/10/31 05:40:36;;;;;;;14.80;13.30;;;;;;;21.78;51.99;97076.63;4993053;28;20238;-60
2021/10/31 05:43:03;;;;;;;14.83;13.33;;;;;;;21.74;51.40;97075.72;4992633;28;20230;-59
2021/10/31 05:45:30;;;;;;;16.13;14.40;;;;;;;21.71;51.01;97068.78;4992508;28;20325;-61
2021/10/31 05:47:56;;;;;;;16.47;14.77;;;;;;;21.68;50.43;97068.72;4992293;28;20233;-61
2021/10/31 05:50:23;;;;;;;17.80;15.87;;;;;;;21.67;50.25;97073.81;4990755;28;20716;-61
2021/10/31 05:52:50;;;;;;;16.20;14.60;;;;;;;21.64;49.62;97074.63;4992231;28;20258;-61
2021/10/31 05:55:16;;;;;;;17.13;15.43;;;;;;;21.63;49.39;97072.91;4991896;28;20289;-61
2021/10/31 05:57:43;;;;;;;17.00;14.83;;;;;;;21.61;49.18;97073.69;4990456;28;20308;-61
2021/10/31 06:00:11;;;;;;;17.27;15.47;;;;;;;21.60;49.65;97077.06;4991879;28;20234;-60
2021/10/31 06:02:38;;;;;;;21.07;15.20;;;;;;;21.60;49.57;97072.84;4992288;28;20231;-61
2021/10/31 06:05:05;;;;;;;21.70;15.03;;;;;;;21.61;50.25;97061.78;4991617;28;20719;-61
2021/10/31 06:07:32;;;;;;;17.00;15.20;;;;;;;21.60;50.91;97057.50;4993248;28;20244;-61
2021/10/31 06:09:58;;;;;;;15.70;14.10;;;;;;;21.62;51.15;97049.84;4991868;28;20334;-61
2021/10/31 06:12:25;;;;;;;16.70;14.27;;;;;;;21.56;51.98;97045.47;4992044;28;20223;-61
2021/10/31 06:14:51;;;;;;;15.57;14.07;;;;;;;21.60;52.40;97046.41;4983597;28;20238;-61
2021/10/31 06:17:18;;;;;;;14.90;13.30;;;;;;;21.60;53.24;97049.81;4991806;28;20583;-61
2021/10/31 06:19:45;;;;;;;14.63;13.20;;;;;;;21.66;53.46;97069.53;4994025;28;20957;-61
2021/10/31 06:22:11;;;;;;;14.43;13.03;;;;;;;21.66;53.49;97065.31;4994663;28;20227;-61
2021/10/31 06:24:38;;;;;;;13.73;12.43;;;;;;;21.67;53.83;97055.91;4998522;28;20632;-61
2021/10/31 06:27:05;;;;;;;14.73;12.37;;;;;;;21.67;53.97;97064.47;4992547;28;20261;-63
2021/10/31 06:29:31;;;;;;;15.70;13.10;;;;;;;21.68;54.47;97073.00;4992087;28;20290;-61
2021/10/31 06:31:58;;;;;;;13.93;12.53;;;;;;;21.64;54.46;97059.28;4985868;28;20675;-61
2021/10/31 06:34:24;;;;;;;13.10;11.80;;;;;;;21.70;54.72;97076.44;4987621;28;20231;-59
2021/10/31 06:36:51;;;;;;;13.93;12.33;;;;;;;21.67;54.98;97058.47;4989466;28;20314;-60
2021/10/31 06:39:17;;;;;;;13.03;11.77;;;;;;;21.73;54.76;97065.44;4988014;28;20230;-61
2021/10/31 06:41:44;;;;;;;13.00;11.73;;;;;;;21.73;54.94;97066.28;4983618;28;20291;-61
2021/10/31 06:44:11;;;;;;;12.20;11.00;;;;;;;21.75;55.04;97072.31;4985501;28;20318;-61
2021/10/31 06:46:37;;;;;;;12.93;11.60;;;;;;;21.75;55.10;97067.22;4991074;28;20227;-60
2021/10/31 06:49:05;;;;;;;12.60;11.27;;;;;;;21.76;55.30;97068.09;4990699;28;20234;-62
2021/10/31 06:51:31;;;;;;;12.13;11.03;;;;;;;21.74;55.17;97073.16;4991318;28;20258;-61
2021/10/31 06:53:58;;;;;;;12.17;11.07;;;;;;;21.73;54.97;97068.00;4990475;28;20245;-62
2021/10/31 06:56:26;;;;;;;12.30;11.10;;;;;;;21.71;55.37;97075.63;4990566;28;20385;-60
2021/10/31 06:58:52;;;;;;;11.83;10.30;;;;;;;21.67;55.42;97063.59;4982617;28;20289;-63
2021/10/31 07:01:20;;;;;;;13.03;11.63;;;;;;;21.67;55.41;97067.00;4986973;28;20625;-61
2021/10/31 07:03:48;;;;;;;11.37;10.27;;;;;;;21.66;55.82;97074.66;4990504;28;20609;-61
2021/10/31 07:06:16;;;;;;;11.90;10.80;;;;;;;21.58;55.55;97058.28;4990866;28;20234;-61
2021/10/31 07:08:43;;;;;;;11.87;10.77;;;;;;;21.63;55.96;97062.69;4989603;28;20238;-61
2021/10/31 07:11:10;;;;;;;14.10;10.87;;;;;;;21.62;56.11;97072.88;4985017;28;20207;-61
2021/10/31 07:13:37;;;;;;;12.07;10.97;;;;;;;21.60;55.83;97072.84;4990868;28;20222;-61
2021/10/31 07:16:03;;;;;;;12.43;10.63;;;;;;;21.61;56.05;97069.44;4989923;28;20803;-61
2021/10/31 07:18:30;;;;;;;11.63;10.43;;;;;;;21.59;55.83;97071.09;4985873;28;20289;-62
2021/10/31 07:20:57;;;;;;;11.20;10.10;;;;;;;21.62;56.42;97076.28;4989956;28;20781;-61
2021/10/31 07:23:24;;;;;;;16.43;10.20;;;;;;;21.46;56.32;97040.97;4985202;28;20824;-61
2021/10/31 07:25:51;;;;;;;11.43;10.33;;;;;;;21.63;56.15;97069.47;4986058;28;20723;-62
2021/10/31 07:28:18;;;;;;;11.57;10.47;;;;;;;21.66;56.34;97066.97;4990421;28;20199;-61
2021/10/31 07:30:45;;;;;;;11.47;10.37;;;;;;;21.68;56.42;97060.22;4989942;28;20297;-60
2021/10/31 07:33:13;;;;;;;12.37;10.17;;;;;;;21.68;56.17;97061.06;4972261;28;20211;-61
2021/10/31 07:35:39;;;;;;;10.87;9.80;;;;;;;21.70;56.36;97061.97;4989400;28;21080;-61
2021/10/31 07:38:07;;;;;;;11.20;10.10;;;;;;;21.71;56.57;97062.84;4989913;28;20297;-62
2021/10/31 07:40:33;;;;;;;10.30;9.30;;;;;;;21.71;56.81;97057.72;4990257;28;20230;-61
2021/10/31 07:43:00;;;;;;;11.50;10.30;;;;;;;21.72;56.39;97054.31;4989200;28;20390;-61
2021/10/31 07:45:36;;;;;;;9.80;8.90;;;;;;;21.75;56.69;97051.00;4990004;28;20222;-61
2021/10/31 07:48:04;;;;;;;10.37;9.27;;;;;;;21.70;56.40;97038.94;4987674;28;20203;-61
2021/10/31 07:50:36;;;;;;;11.03;10.00;;;;;;;21.76;55.80;97034.84;4988532;28;20761;-61
2021/10/31 07:53:04;;;;;;;10.43;9.33;;;;;;;21.78;56.24;97044.25;4986954;28;20256;-61
2021/10/31 07:55:33;;;;;;;13.40;10.63;;;;;;;21.78;56.36;97051.06;4974973;28;20250;-60
2021/10/31 07:58:00;;;;;;;11.50;10.30;;;;;;;21.78;56.32;97046.81;4976514;28;20207;-62
2021/10/31 08:00:28;;;;;;;14.77;10.33;;;;;;;21.75;56.44;97039.06;4973862;28;20208;-62
2021/10/31 08:02:55;;;;;;;15.63;9.63;;;;;;;21.78;56.67;97041.69;4975696;28;20930;-60
2021/10/31 08:05:22;;;;;;;15.93;10.13;;;;;;;21.79;56.36;97043.41;4976862;28;20258;-61
2021/10/31 08:07:49;;;;;;;17.17;10.07;;;;;;;21.79;56.52;97045.13;4976837;28;20314;-63
2021/10/31 08:10:16;;;;;;;12.13;9.13;;;;;;;21.77;56.64;97041.66;4974316;28;20638;-63
2021/10/31 08:12:42;;;;;;;11.97;9.50;;;;;;;21.76;56.96;97034.84;4974481;28;20318;-62
2021/10/31 08:15:09;;;;;;;16.93;9.77;;;;;;;21.73;56.82;97028.78;4973488;28;20222;-64
2021/10/31 08:17:36;;;;;;;24.07;10.67;;;;;;;21.73;57.08;97030.47;4991359;28;20286;-62
2021/10/31 08:20:03;;;;;;;14.07;8.90;;;;;;;21.71;57.13;97040.66;4976030;28;20249;-61
2021/10/31 08:22:29;;;;;;;19.90;9.23;;;;;;;21.71;57.47;97029.59;4960486;28;20950;-63
2021/10/31 08:24:56;;;;;;;27.93;10.17;;;;;;;21.67;58.03;97026.09;4974790;28;20199;-63
2021/10/31 08:27:23;;;;;;;25.37;9.87;;;;;;;21.69;57.81;97029.56;4975238;28;20991;-62
2021/10/31 08:29:51;;;;;;;27.23;9.57;;;;;;;21.70;59.11;97031.28;4978787;28;20230;-63
2021/10/31 08:32:17;;;;;;;30.60;8.90;;;;;;;21.70;58.70;97020.16;4974004;28;20323;-63
2021/10/31 08:34:44;;;;;;;25.33;10.33;;;;;;;21.70;58.99;97012.50;4976890;28;20252;-63
2021/10/31 08:37:11;;;;;;;31.90;10.33;;;;;;;21.71;58.70;96998.91;4976525;28;20229;-64
2021/10/31 08:39:37;;;;;;;28.50;9.97;;;;;;;21.73;59.42;96996.38;4977091;28;20290;-63
2021/10/31 08:42:04;;;;;;;28.93;9.60;;;;;;;21.73;59.27;96991.25;4977172;28;20297;-63
2021/10/31 08:44:30;;;;;;;33.87;11.10;;;;;;;21.75;60.28;96990.47;4974582;28;20326;-64
2021/10/31 08:46:57;;;;;;;30.20;12.10;;;;;;;21.55;61.14;96943.16;4979730;28;20281;-64
2021/10/31 08:49:24;;;;;;;30.13;12.17;;;;;;;21.78;60.82;96982.88;4974783;28;20290;-63
2021/10/31 08:51:50;;;;;;;42.97;12.00;;;;;;;21.80;61.01;96980.34;4958667;28;20643;-62
2021/10/31 08:54:18;;;;;;;39.13;12.67;;;;;;;21.80;60.65;96980.34;4974421;28;20251;-65
2021/10/31 08:56:46;;;;;;;32.87;14.00;;;;;;;21.82;61.55;96976.13;4976115;28;20310;-62
2021/10/31 08:59:13;;;;;;;24.37;14.50;;;;;;;21.82;61.49;96973.56;4974429;28;20250;-62
2021/10/31 09:01:40;;;;;;;23.70;19.23;;;;;;;21.80;60.67;96965.88;4973156;28;20286;-63
2021/10/31 09:04:07;;;;;;;30.07;20.97;;;;;;;21.78;59.30;96964.97;4974130;28;20648;-61
2021/10/31 09:06:34;;;;;;;25.23;20.00;;;;;;;21.77;59.00;96959.81;4975625;28;20243;-62
2021/10/31 09:09:00;;;;;;;21.97;18.63;;;;;;;21.74;58.24;96955.53;4971154;28;20634;-63
2021/10/31 09:11:27;;;;;;;26.73;17.43;;;;;;;21.72;58.09;96957.13;4988272;28;20294;-63
2021/10/31 09:13:53;;;;;;;22.17;18.90;;;;;;;21.70;57.67;96949.44;4987954;28;20314;-62
2021/10/31 09:16:20;;;;;;;23.67;18.43;;;;;;;21.68;57.89;96938.31;4988013;28;20265;-62
2021/10/31 09:18:47;;;;;;;25.47;18.27;;;;;;;21.67;57.94;96931.47;4988292;28;20697;-64
2021/10/31 09:21:15;;;;;;;27.33;18.60;;;;;;;21.67;57.87;96933.16;4983826;28;20286;-63
2021/10/31 09:23:45;;;;;;;26.17;18.20;;;;;;;21.65;58.11;96928.00;4988039;28;20808;-63
2021/10/31 09:26:11;;;;;;;25.03;17.77;;;;;;;21.61;58.49;96915.16;4987269;28;20310;-63
2021/10/31 09:28:38;;;;;;;20.40;17.30;;;;;;;21.63;58.46;96918.59;4974418;28;20234;-63
2021/10/31 09:31:05;;;;;;;19.87;17.77;;;;;;;21.55;58.44;96913.34;4985047;28;20285;-62
2021/10/31 09:33:33;;;;;;;20.00;17.90;;;;;;;21.63;58.70;96916.03;4986880;28;20245;-64
2021/10/31 09:36:00;;;;;;;23.00;18.10;;;;;;;21.44;58.97;96890.97;4986902;28;20229;-62
2021/10/31 09:38:29;;;;;;;20.33;16.83;;;;;;;21.60;59.16;96910.88;4987033;28;20640;-63
2021/10/31 09:40:56;;;;;;;19.50;17.37;;;;;;;21.47;59.36;96889.31;4987883;28;20222;-63
2021/10/31 09:43:26;;;;;;;19.73;17.53;;;;;;;21.61;59.19;96913.47;4987568;28;20210;-63
2021/10/31 09:45:53;;;;;;;19.53;17.27;;;;;;;21.62;59.53;96915.16;4985915;28;20647;-63
2021/10/31 09:48:20;;;;;;;19.10;17.20;;;;;;;21.61;60.03;96900.66;4969541;28;20230;-61
2021/10/31 09:50:48;;;;;;;19.53;16.33;;;;;;;21.62;59.58;96902.38;4970385;28;20281;-62
2021/10/31 09:53:19;;;;;;;20.30;17.13;;;;;;;21.62;59.61;96899.00;4985948;28;20301;-63
2021/10/31 09:55:47;;;;;;;22.33;16.90;;;;;;;21.61;59.58;96900.66;4968883;28;20254;-63
2021/10/31 09:58:32;;;;;;;22.17;16.57;;;;;;;21.61;59.73;96892.13;4988219;28;20226;-64
2021/10/31 10:01:00;;;;;;;20.00;16.97;;;;;;;21.61;59.71;96884.47;4987709;28;20621;-64
2021/10/31 10:06:14;;;;;;;21.20;16.37;;;;;;;21.59;59.75;96879.31;4971309;28;20451;-63
2021/10/31 10:08:56;;;;;;;18.17;16.27;;;;;;;21.61;59.71;96879.34;4987240;28;20238;-63
2021/10/31 10:11:23;;;;;;;18.57;16.60;;;;;;;21.60;59.31;96867.41;4965835;28;20285;-62
2021/10/31 10:13:49;;;;;;;18.63;16.63;;;;;;;21.60;59.32;96864.84;4986895;28;20317;-62
2021/10/31 10:16:27;;;;;;;17.40;15.60;;;;;;;21.59;59.55;96855.47;4986520;28;20263;-62
2021/10/31 10:18:54;;;;;;;21.13;15.90;;;;;;;21.58;59.60;96853.72;4984506;28;20218;-63
2021/10/31 10:21:22;;;;;;;18.43;15.93;;;;;;;21.60;59.47;96854.63;4987032;28;20235;-63
2021/10/31 10:23:56;;;;;;;16.73;15.03;;;;;;;21.59;59.63;96847.78;4988883;28;20207;-64
2021/10/31 10:26:36;;;;;;;18.87;15.03;;;;;;;21.60;59.16;96850.38;4989054;28;20227;-65
2021/10/31 10:29:20;;;;;;;15.80;14.17;;;;;;;21.60;59.39;96850.38;4986627;28;20273;-63
2021/10/31 10:31:48;;;;;;;17.83;15.43;;;;;;;21.58;59.19;96843.50;4989937;28;20354;-63
2021/10/31 10:34:15;;;;;;;16.70;15.00;;;;;;;21.56;59.37;96834.94;4973765;28;20598;-63
2021/10/31 10:36:44;;;;;;;16.10;14.50;;;;;;;21.59;59.22;96850.34;4989259;28;20265;-63
2021/10/31 10:39:16;;;;;;;18.20;15.27;;;;;;;21.57;59.23;96834.09;4990916;28;20245;-63
2021/10/31 10:41:50;;;;;;;15.20;13.70;;;;;;;21.58;59.32;96831.56;4990468;28;20286;-63
2021/10/31 10:44:25;;;;;;;15.47;13.90;;;;;;;21.57;59.25;96834.97;4990529;28;20316;-63
2021/10/31 10:47:00;;;;;;;15.33;13.83;;;;;;;21.57;59.14;96827.31;4984119;28;20267;-62
2021/10/31 10:49:27;;;;;;;16.10;14.40;;;;;;;21.56;59.12;96825.56;4981007;28;20204;-63
2021/10/31 10:52:03;;;;;;;17.33;14.43;;;;;;;21.57;59.16;96827.31;4983816;28;20246;-63
2021/10/31 10:54:30;;;;;;;15.60;13.97;;;;;;;21.54;59.19;96817.03;4984768;28;20272;-63
2021/10/31 10:57:07;;;;;;;16.50;14.07;;;;;;;21.58;59.36;96812.81;4989445;28;20222;-63
2021/10/31 10:59:36;;;;;;;15.17;13.60;;;;;;;21.57;59.40;96813.66;4991122;28;20206;-63
2021/10/31 11:02:14;;;;;;;14.87;13.27;;;;;;;21.57;59.03;96803.44;4988749;28;20250;-64
2021/10/31 11:04:46;;;;;;;16.03;14.27;;;;;;;21.57;59.20;96803.44;4991053;28;20229;-63
2021/10/31 11:07:13;;;;;;;15.33;13.73;;;;;;;21.57;59.32;96795.75;4988884;28;20328;-63
2021/10/31 11:09:42;;;;;;;15.53;13.60;;;;;;;21.56;59.44;96794.03;4986433;28;20204;-64
2021/10/31 11:12:28;;;;;;;15.83;13.33;;;;;;;21.51;59.38;96768.41;4971810;28;20235;-63
2021/10/31 11:14:57;;;;;;;15.57;14.00;;;;;;;21.46;59.43;96757.22;4987428;28;20249;-62
2021/10/31 11:17:23;;;;;;;15.73;13.33;;;;;;;21.56;59.64;96764.19;4975145;28;20261;-64
2021/10/31 11:19:53;;;;;;;16.43;13.43;;;;;;;21.49;59.50;96741.06;4989550;28;20290;-63
2021/10/31 11:22:20;;;;;;;13.37;11.97;;;;;;;21.58;59.49;96743.78;4981323;28;20650;-64
2021/10/31 11:24:48;;;;;;;14.53;12.73;;;;;;;21.58;59.27;96731.00;4983544;28;20222;-63
2021/10/31 11:27:22;;;;;;;16.37;12.67;;;;;;;21.58;59.28;96728.44;4984651;28;20301;-63
2021/10/31 11:29:49;;;;;;;14.17;12.77;;;;;;;21.58;59.61;96720.75;4990336;28;20241;-63
2021/10/31 11:32:17;;;;;;;13.87;12.40;;;;;;;21.54;59.30;96704.53;4989475;28;20198;-63
2021/10/31 11:34:45;;;;;;;14.27;12.77;;;;;;;21.54;59.44;96685.75;4987279;28;20258;-64
2021/10/31 11:37:12;;;;;;;16.93;12.27;;;;;;;21.47;59.37;96672.00;4989479;28;20218;-63